Lake Ann, Michigan
Current Conditions -  °F | °C
As of 1:21 AM on Friday 19 Dec 2014 (Local Time) from KTVC Reporting Station
Broken Clouds Broken Clouds  
Wind Chill: -11°   Ceiling: 2000
Heat Index: -11°   Visibility: 10mi
Dew Point: -12°   Wind: 0mph
Humidity: 88%   Direction: NA
Pressure: 30.24"   Gusts: NA
Location:  44.72°N, 85.84°W
Report Text: KTVC 190621Z AUTO 00000KT 10SM BKN020 M11/M12 A3024 RMK AO2 T11061122
Loading
Personal Weather Stations






























Interactive Weather Map New forecast layout! Learn more

10-Day Weather Forecast

Advertisements
Track Severe Weather on mobile